sensor_id;sensor_type;location;lat;lon;timestamp;pressure;altitude;pressure_sealevel;temperature;humidity
65666;BME280;52365;47.464;18.976;2023-12-14T00:00:08;98358.31;;;11.41;61.14
65666;BME280;52365;47.464;18.976;2023-12-14T00:00:24;98357.31;;;11.44;61.21
65666;BME280;52365;47.464;18.976;2023-12-14T00:00:45;98358.78;;;11.45;61.19
65666;BME280;52365;47.464;18.976;2023-12-14T00:01:01;98357.09;;;11.42;61.15
65666;BME280;52365;47.464;18.976;2023-12-14T00:01:22;98357.34;;;11.38;61.32
65666;BME280;52365;47.464;18.976;2023-12-14T00:01:43;98357.06;;;11.53;61.20
65666;BME280;52365;47.464;18.976;2023-12-14T00:02:06;98358.81;;;11.33;61.36
65666;BME280;52365;47.464;18.976;2023-12-14T00:02:22;98361.25;;;11.43;61.34
65666;BME280;52365;47.464;18.976;2023-12-14T00:02:43;98353.16;;;11.48;61.20
65666;BME280;52365;47.464;18.976;2023-12-14T00:02:59;98357.56;;;11.40;61.32
65666;BME280;52365;47.464;18.976;2023-12-14T00:03:20;98351.94;;;11.38;61.29
65666;BME280;52365;47.464;18.976;2023-12-14T00:03:42;98351.19;;;11.43;61.18
65666;BME280;52365;47.464;18.976;2023-12-14T00:04:04;98357.34;;;11.27;61.38
65666;BME280;52365;47.464;18.976;2023-12-14T00:04:26;98353.16;;;11.15;61.58
65666;BME280;52365;47.464;18.976;2023-12-14T00:04:42;98361.00;;;11.01;62.14
65666;BME280;52365;47.464;18.976;2023-12-14T00:04:58;98358.59;;;11.03;62.22
65666;BME280;52365;47.464;18.976;2023-12-14T00:05:14;98353.91;;;10.87;62.44
65666;BME280;52365;47.464;18.976;2023-12-14T00:05:35;98355.37;;;10.77;62.92
65666;BME280;52365;47.464;18.976;2023-12-14T00:05:56;98362.94;;;10.62;63.38
65666;BME280;52365;47.464;18.976;2023-12-14T00:06:12;98360.69;;;10.49;63.90
65666;BME280;52365;47.464;18.976;2023-12-14T00:06:29;98356.81;;;10.50;64.09
65666;BME280;52365;47.464;18.976;2023-12-14T00:06:50;98360.47;;;10.52;64.23
65666;BME280;52365;47.464;18.976;2023-12-14T00:07:06;98362.06;;;10.16;64.99
65666;BME280;52365;47.464;18.976;2023-12-14T00:07:27;98355.81;;;10.42;65.08
65666;BME280;52365;47.464;18.976;2023-12-14T00:07:48;98354.63;;;10.59;64.63
65666;BME280;52365;47.464;18.976;2023-12-14T00:08:09;98349.69;;;10.47;64.55
65666;BME280;52365;47.464;18.976;2023-12-14T00:08:25;98357.72;;;10.24;65.00
65666;BME280;52365;47.464;18.976;2023-12-14T00:08:46;98363.78;;;10.19;65.46
65666;BME280;52365;47.464;18.976;2023-12-14T00:09:07;98358.44;;;10.30;65.45
65666;BME280;52365;47.464;18.976;2023-12-14T00:09:24;98350.88;;;10.29;65.42
65666;BME280;52365;47.464;18.976;2023-12-14T00:09:45;98359.31;;;10.05;65.93
65666;BME280;52365;47.464;18.976;2023-12-14T00:10:06;98353.34;;;10.32;65.74
65666;BME280;52365;47.464;18.976;2023-12-14T00:10:28;98360.25;;;10.62;65.40
65666;BME280;52365;47.464;18.976;2023-12-14T00:10:44;98362.47;;;10.74;64.71
65666;BME280;52365;47.464;18.976;2023-12-14T00:11:06;98358.06;;;10.71;64.25
65666;BME280;52365;47.464;18.976;2023-12-14T00:11:27;98355.31;;;10.49;64.45
65666;BME280;52365;47.464;18.976;2023-12-14T00:11:48;98356.31;;;10.57;64.50
65666;BME280;52365;47.464;18.976;2023-12-14T00:12:09;98353.63;;;10.46;64.65
65666;BME280;52365;47.464;18.976;2023-12-14T00:12:25;98351.88;;;10.37;64.90
65666;BME280;52365;47.464;18.976;2023-12-14T00:12:46;98354.56;;;10.37;65.04
65666;BME280;52365;47.464;18.976;2023-12-14T00:13:09;98360.19;;;10.33;65.14
65666;BME280;52365;47.464;18.976;2023-12-14T00:13:25;98351.84;;;10.31;65.08
65666;BME280;52365;47.464;18.976;2023-12-14T00:13:42;98362.06;;;10.22;65.29
65666;BME280;52365;47.464;18.976;2023-12-14T00:13:58;98352.03;;;10.17;65.58
65666;BME280;52365;47.464;18.976;2023-12-14T00:14:19;98359.84;;;10.15;65.49
65666;BME280;52365;47.464;18.976;2023-12-14T00:14:35;98351.69;;;9.92;66.21
65666;BME280;52365;47.464;18.976;2023-12-14T00:14:51;98357.91;;;10.15;66.17
65666;BME280;52365;47.464;18.976;2023-12-14T00:15:07;98355.03;;;10.24;66.06
65666;BME280;52365;47.464;18.976;2023-12-14T00:15:23;98353.34;;;10.44;65.66
65666;BME280;52365;47.464;18.976;2023-12-14T00:15:40;98350.09;;;10.23;65.44
65666;BME280;52365;47.464;18.976;2023-12-14T00:16:01;98352.03;;;10.17;65.65
65666;BME280;52365;47.464;18.976;2023-12-14T00:16:17;98342.97;;;10.14;65.83
65666;BME280;52365;47.464;18.976;2023-12-14T00:16:38;98350.06;;;10.17;65.96
65666;BME280;52365;47.464;18.976;2023-12-14T00:16:55;98346.19;;;10.24;65.78
65666;BME280;52365;47.464;18.976;2023-12-14T00:17:20;98346.87;;;10.13;65.85
65666;BME280;52365;47.464;18.976;2023-12-14T00:17:36;98337.09;;;10.16;65.83
65666;BME280;52365;47.464;18.976;2023-12-14T00:17:57;98339.28;;;10.17;65.84
65666;BME280;52365;47.464;18.976;2023-12-14T00:18:18;98344.25;;;10.36;65.64
65666;BME280;52365;47.464;18.976;2023-12-14T00:18:39;98349.81;;;10.15;65.43
65666;BME280;52365;47.464;18.976;2023-12-14T00:19:00;98357.72;;;9.76;66.44
65666;BME280;52365;47.464;18.976;2023-12-14T00:19:16;98350.88;;;9.75;66.84
65666;BME280;52365;47.464;18.976;2023-12-14T00:19:32;98345.25;;;9.78;66.92
65666;BME280;52365;47.464;18.976;2023-12-14T00:19:53;98356.09;;;9.52;67.29
65666;BME280;52365;47.464;18.976;2023-12-14T00:20:10;98350.56;;;9.62;67.62
65666;BME280;52365;47.464;18.976;2023-12-14T00:20:31;98358.56;;;9.50;67.67
65666;BME280;52365;47.464;18.976;2023-12-14T00:20:47;98358.22;;;9.37;68.10
65666;BME280;52365;47.464;18.976;2023-12-14T00:21:04;98356.78;;;9.42;68.24
65666;BME280;52365;47.464;18.976;2023-12-14T00:21:20;98364.59;;;9.40;68.46
65666;BME280;52365;47.464;18.976;2023-12-14T00:21:42;98362.25;;;9.53;68.45
65666;BME280;52365;47.464;18.976;2023-12-14T00:22:03;98362.16;;;9.79;67.96
65666;BME280;52365;47.464;18.976;2023-12-14T00:22:24;98365.16;;;9.92;67.47
65666;BME280;52365;47.464;18.976;2023-12-14T00:22:40;98367.84;;;9.98;67.13
65666;BME280;52365;47.464;18.976;2023-12-14T00:23:01;98374.16;;;9.83;67.08
65666;BME280;52365;47.464;18.976;2023-12-14T00:23:18;98372.91;;;9.79;67.33
65666;BME280;52365;47.464;18.976;2023-12-14T00:23:39;98370.53;;;9.92;67.09
65666;BME280;52365;47.464;18.976;2023-12-14T00:23:55;98374.84;;;9.78;67.00
65666;BME280;52365;47.464;18.976;2023-12-14T00:24:11;98377.31;;;9.82;67.12
65666;BME280;52365;47.464;18.976;2023-12-14T00:24:32;98377.53;;;9.78;67.18
65666;BME280;52365;47.464;18.976;2023-12-14T00:24:53;98375.94;;;10.03;66.95
65666;BME280;52365;47.464;18.976;2023-12-14T00:25:09;98382.69;;;10.30;66.29
65666;BME280;52365;47.464;18.976;2023-12-14T00:25:30;98379.31;;;10.41;65.84
65666;BME280;52365;47.464;18.976;2023-12-14T00:25:51;98382.63;;;10.19;65.73
65666;BME280;52365;47.464;18.976;2023-12-14T00:26:07;98380.41;;;10.18;65.66
65666;BME280;52365;47.464;18.976;2023-12-14T00:26:24;98379.28;;;10.36;65.59
65666;BME280;52365;47.464;18.976;2023-12-14T00:26:45;98382.00;;;10.41;65.41
65666;BME280;52365;47.464;18.976;2023-12-14T00:27:01;98384.91;;;10.32;65.47
65666;BME280;52365;47.464;18.976;2023-12-14T00:27:17;98387.03;;;10.22;65.40
65666;BME280;52365;47.464;18.976;2023-12-14T00:27:38;98390.75;;;10.25;65.49
65666;BME280;52365;47.464;18.976;2023-12-14T00:27:54;98384.31;;;10.17;65.45
65666;BME280;52365;47.464;18.976;2023-12-14T00:28:10;98389.94;;;10.13;65.66
65666;BME280;52365;47.464;18.976;2023-12-14T00:28:32;98398.78;;;10.19;65.73
65666;BME280;52365;47.464;18.976;2023-12-14T00:28:48;98391.19;;;10.18;65.91
65666;BME280;52365;47.464;18.976;2023-12-14T00:29:09;98392.72;;;10.24;65.73
65666;BME280;52365;47.464;18.976;2023-12-14T00:29:25;98398.63;;;10.34;65.55
65666;BME280;52365;47.464;18.976;2023-12-14T00:29:41;98400.78;;;10.24;65.43
65666;BME280;52365;47.464;18.976;2023-12-14T00:30:03;98393.97;;;10.40;65.24
65666;BME280;52365;47.464;18.976;2023-12-14T00:30:19;98397.16;;;10.44;65.02
65666;BME280;52365;47.464;18.976;2023-12-14T00:30:35;98398.38;;;10.38;64.90
65666;BME280;52365;47.464;18.976;2023-12-14T00:30:56;98397.97;;;10.62;64.71
65666;BME280;52365;47.464;18.976;2023-12-14T00:31:12;98394.53;;;10.61;64.43
65666;BME280;52365;47.464;18.976;2023-12-14T00:31:33;98398.63;;;10.40;64.63
65666;BME280;52365;47.464;18.976;2023-12-14T00:31:49;98399.38;;;10.40;64.64
65666;BME280;52365;47.464;18.976;2023-12-14T00:32:06;98395.97;;;10.45;64.70
65666;BME280;52365;47.464;18.976;2023-12-14T00:32:22;98400.63;;;10.50;64.62
65666;BME280;52365;47.464;18.976;2023-12-14T00:32:38;98402.34;;;10.48;64.62
65666;BME280;52365;47.464;18.976;2023-12-14T00:32:54;98406.53;;;10.60;64.45
65666;BME280;52365;47.464;18.976;2023-12-14T00:33:10;98393.78;;;10.49;64.39
65666;BME280;52365;47.464;18.976;2023-12-14T00:33:31;98411.12;;;10.43;64.61
65666;BME280;52365;47.464;18.976;2023-12-14T00:33:53;98404.53;;;10.44;64.51
65666;BME280;52365;47.464;18.976;2023-12-14T00:34:14;98405.47;;;10.29;64.88
65666;BME280;52365;47.464;18.976;2023-12-14T00:34:35;98405.03;;;9.94;65.20
65666;BME280;52365;47.464;18.976;2023-12-14T00:34:51;98412.38;;;8.72;67.26
65666;BME280;52365;47.464;18.976;2023-12-14T00:35:07;98404.00;;;8.39;69.16
65666;BME280;52365;47.464;18.976;2023-12-14T00:35:23;98413.56;;;8.04;70.46
65666;BME280;52365;47.464;18.976;2023-12-14T00:35:39;98411.12;;;7.86;71.42
65666;BME280;52365;47.464;18.976;2023-12-14T00:36:00;98417.06;;;7.75;72.29
65666;BME280;52365;47.464;18.976;2023-12-14T00:36:22;98419.97;;;7.57;73.22
65666;BME280;52365;47.464;18.976;2023-12-14T00:36:43;98425.69;;;7.50;74.14
65666;BME280;52365;47.464;18.976;2023-12-14T00:37:04;98425.69;;;8.00;74.64
65666;BME280;52365;47.464;18.976;2023-12-14T00:37:25;98431.47;;;8.74;73.43
65666;BME280;52365;47.464;18.976;2023-12-14T00:37:46;98431.37;;;9.47;72.10
65666;BME280;52365;47.464;18.976;2023-12-14T00:38:07;98439.06;;;9.97;70.07
65666;BME280;52365;47.464;18.976;2023-12-14T00:38:28;98434.75;;;10.16;68.49
65666;BME280;52365;47.464;18.976;2023-12-14T00:38:49;98433.84;;;10.30;67.22
65666;BME280;52365;47.464;18.976;2023-12-14T00:39:10;98430.44;;;10.36;66.42
65666;BME280;52365;47.464;18.976;2023-12-14T00:39:31;98435.94;;;10.64;65.90
65666;BME280;52365;47.464;18.976;2023-12-14T00:39:52;98439.09;;;10.62;65.14
65666;BME280;52365;47.464;18.976;2023-12-14T00:40:08;98438.63;;;10.69;64.74
65666;BME280;52365;47.464;18.976;2023-12-14T00:40:25;98431.44;;;10.44;64.58
65666;BME280;52365;47.464;18.976;2023-12-14T00:40:46;98440.97;;;10.33;64.95
65666;BME280;52365;47.464;18.976;2023-12-14T00:41:07;98440.47;;;10.29;64.72
65666;BME280;52365;47.464;18.976;2023-12-14T00:41:28;98446.06;;;9.51;65.83
65666;BME280;52365;47.464;18.976;2023-12-14T00:41:44;98442.28;;;8.80;67.80
65666;BME280;52365;47.464;18.976;2023-12-14T00:42:05;98438.31;;;8.55;69.26
65666;BME280;52365;47.464;18.976;2023-12-14T00:42:22;98444.41;;;8.15;70.67
65666;BME280;52365;47.464;18.976;2023-12-14T00:42:43;98439.41;;;8.63;70.87
65666;BME280;52365;47.464;18.976;2023-12-14T00:43:04;98432.38;;;8.45;71.14
65666;BME280;52365;47.464;18.976;2023-12-14T00:43:20;98443.25;;;8.01;71.88
65666;BME280;52365;47.464;18.976;2023-12-14T00:43:41;98444.28;;;7.68;72.60
65666;BME280;52365;47.464;18.976;2023-12-14T00:44:02;98448.53;;;7.60;73.69
65666;BME280;52365;47.464;18.976;2023-12-14T00:44:19;98455.56;;;7.43;74.45
65666;BME280;52365;47.464;18.976;2023-12-14T00:44:35;98450.03;;;7.46;74.92
65666;BME280;52365;47.464;18.976;2023-12-14T00:44:51;98448.53;;;7.45;75.31
65666;BME280;52365;47.464;18.976;2023-12-14T00:45:07;98455.19;;;7.35;75.68
65666;BME280;52365;47.464;18.976;2023-12-14T00:45:28;98454.56;;;7.25;75.94
65666;BME280;52365;47.464;18.976;2023-12-14T00:45:49;98458.41;;;7.10;76.43
65666;BME280;52365;47.464;18.976;2023-12-14T00:46:05;98456.38;;;7.19;76.76
65666;BME280;52365;47.464;18.976;2023-12-14T00:46:27;98454.19;;;7.18;76.97
65666;BME280;52365;47.464;18.976;2023-12-14T00:46:43;98465.38;;;7.16;77.31
65666;BME280;52365;47.464;18.976;2023-12-14T00:47:04;98456.03;;;7.26;77.39
65666;BME280;52365;47.464;18.976;2023-12-14T00:47:25;98461.22;;;7.30;77.52
65666;BME280;52365;47.464;18.976;2023-12-14T00:47:46;98460.47;;;7.29;77.51
65666;BME280;52365;47.464;18.976;2023-12-14T00:48:07;98465.53;;;7.13;77.63
65666;BME280;52365;47.464;18.976;2023-12-14T00:48:28;98462.94;;;7.18;78.01
65666;BME280;52365;47.464;18.976;2023-12-14T00:48:50;98456.38;;;7.19;78.01
65666;BME280;52365;47.464;18.976;2023-12-14T00:49:06;98468.50;;;7.29;78.13
65666;BME280;52365;47.464;18.976;2023-12-14T00:49:27;98466.75;;;7.26;78.01
65666;BME280;52365;47.464;18.976;2023-12-14T00:49:49;98461.84;;;7.40;77.96
65666;BME280;52365;47.464;18.976;2023-12-14T00:50:10;98471.28;;;7.35;77.89
65666;BME280;52365;47.464;18.976;2023-12-14T00:50:26;98465.34;;;7.31;77.83
65666;BME280;52365;47.464;18.976;2023-12-14T00:50:47;98465.19;;;7.35;77.86
65666;BME280;52365;47.464;18.976;2023-12-14T00:51:08;98466.84;;;7.17;77.90
65666;BME280;52365;47.464;18.976;2023-12-14T00:51:24;98461.66;;;7.28;78.03
65666;BME280;52365;47.464;18.976;2023-12-14T00:51:45;98465.34;;;7.31;78.00
65666;BME280;52365;47.464;18.976;2023-12-14T00:52:06;98465.34;;;7.31;77.93
65666;BME280;52365;47.464;18.976;2023-12-14T00:52:27;98468.50;;;7.15;78.15
65666;BME280;52365;47.464;18.976;2023-12-14T00:52:48;98467.56;;;7.18;78.12
65666;BME280;52365;47.464;18.976;2023-12-14T00:53:09;98463.31;;;7.11;78.15
65666;BME280;52365;47.464;18.976;2023-12-14T00:53:30;98466.94;;;7.23;78.17
65666;BME280;52365;47.464;18.976;2023-12-14T00:53:47;98468.13;;;7.07;78.18
65666;BME280;52365;47.464;18.976;2023-12-14T00:54:08;98470.69;;;7.01;78.32
65666;BME280;52365;47.464;18.976;2023-12-14T00:54:29;98468.00;;;7.01;78.41
65666;BME280;52365;47.464;18.976;2023-12-14T00:54:45;98468.37;;;6.94;78.79
65666;BME280;52365;47.464;18.976;2023-12-14T00:55:06;98477.63;;;7.08;78.93
65666;BME280;52365;47.464;18.976;2023-12-14T00:55:22;98473.66;;;7.18;78.89
65666;BME280;52365;47.464;18.976;2023-12-14T00:55:43;98478.47;;;7.14;78.76
65666;BME280;52365;47.464;18.976;2023-12-14T00:56:08;98478.84;;;7.07;78.63
65666;BME280;52365;47.464;18.976;2023-12-14T00:56:29;98478.13;;;7.21;78.62
65666;BME280;52365;47.464;18.976;2023-12-14T00:56:45;98480.50;;;7.19;78.49
65666;BME280;52365;47.464;18.976;2023-12-14T00:57:01;98485.13;;;7.19;78.44
65666;BME280;52365;47.464;18.976;2023-12-14T00:57:22;98478.19;;;7.12;78.38
65666;BME280;52365;47.464;18.976;2023-12-14T00:57:43;98490.31;;;7.07;78.57
65666;BME280;52365;47.464;18.976;2023-12-14T00:57:59;98485.47;;;6.97;78.78
65666;BME280;52365;47.464;18.976;2023-12-14T00:58:20;98493.66;;;6.93;78.92
65666;BME280;52365;47.464;18.976;2023-12-14T00:58:41;98488.12;;;6.82;79.28
65666;BME280;52365;47.464;18.976;2023-12-14T00:58:57;98490.56;;;6.95;79.32
65666;BME280;52365;47.464;18.976;2023-12-14T00:59:18;98482.03;;;6.96;79.35
65666;BME280;52365;47.464;18.976;2023-12-14T00:59:34;98485.28;;;7.00;79.33
65666;BME280;52365;47.464;18.976;2023-12-14T00:59:55;98480.97;;;7.03;79.34
65666;BME280;52365;47.464;18.976;2023-12-14T01:00:17;98481.97;;;7.05;79.24
65666;BME280;52365;47.464;18.976;2023-12-14T01:00:39;98475.69;;;6.94;79.24
65666;BME280;52365;47.464;18.976;2023-12-14T01:00:55;98481.94;;;6.91;79.57
65666;BME280;52365;47.464;18.976;2023-12-14T01:01:16;98476.53;;;7.00;79.64
65666;BME280;52365;47.464;18.976;2023-12-14T01:01:32;98477.00;;;6.98;79.51
65666;BME280;52365;47.464;18.976;2023-12-14T01:01:53;98477.81;;;6.90;79.63
65666;BME280;52365;47.464;18.976;2023-12-14T01:02:14;98476.59;;;6.91;79.65
65666;BME280;52365;47.464;18.976;2023-12-14T01:02:35;98483.78;;;6.85;79.81
65666;BME280;52365;47.464;18.976;2023-12-14T01:02:56;98476.00;;;6.72;79.99
65666;BME280;52365;47.464;18.976;2023-12-14T01:03:12;98485.03;;;6.74;80.22
65666;BME280;52365;47.464;18.976;2023-12-14T01:03:28;98481.19;;;7.29;79.96
65666;BME280;52365;47.464;18.976;2023-12-14T01:03:49;98473.66;;;7.33;79.59
65666;BME280;52365;47.464;18.976;2023-12-14T01:04:05;98479.03;;;7.18;79.34
65666;BME280;52365;47.464;18.976;2023-12-14T01:04:22;98471.34;;;6.96;79.46
65666;BME280;52365;47.464;18.976;2023-12-14T01:04:38;98479.91;;;6.86;79.67
65666;BME280;52365;47.464;18.976;2023-12-14T01:04:59;98472.41;;;6.75;79.99
65666;BME280;52365;47.464;18.976;2023-12-14T01:05:15;98476.75;;;6.72;80.17
65666;BME280;52365;47.464;18.976;2023-12-14T01:05:36;98477.31;;;6.76;80.33
65666;BME280;52365;47.464;18.976;2023-12-14T01:05:52;98481.63;;;6.74;80.44
65666;BME280;52365;47.464;18.976;2023-12-14T01:06:08;98478.22;;;6.73;80.60
65666;BME280;52365;47.464;18.976;2023-12-14T01:06:25;98476.75;;;6.72;80.77
65666;BME280;52365;47.464;18.976;2023-12-14T01:06:41;98472.88;;;6.73;80.89
65666;BME280;52365;47.464;18.976;2023-12-14T01:07:03;98483.28;;;6.71;80.94
65666;BME280;52365;47.464;18.976;2023-12-14T01:07:19;98481.88;;;6.61;81.12
65666;BME280;52365;47.464;18.976;2023-12-14T01:07:40;98477.72;;;6.60;81.22
65666;BME280;52365;47.464;18.976;2023-12-14T01:07:56;98481.12;;;6.61;81.48
65666;BME280;52365;47.464;18.976;2023-12-14T01:08:12;98471.50;;;6.54;81.60
65666;BME280;52365;47.464;18.976;2023-12-14T01:08:33;98470.59;;;6.57;81.70
65666;BME280;52365;47.464;18.976;2023-12-14T01:08:49;98474.47;;;6.56;81.83
65666;BME280;52365;47.464;18.976;2023-12-14T01:09:10;98471.16;;;6.61;81.92
65666;BME280;52365;47.464;18.976;2023-12-14T01:09:32;98469.69;;;6.60;81.84
65666;BME280;52365;47.464;18.976;2023-12-14T01:09:48;98464.31;;;6.45;82.24
65666;BME280;52365;47.464;18.976;2023-12-14T01:10:04;98467.41;;;6.44;82.34
65666;BME280;52365;47.464;18.976;2023-12-14T01:10:20;98472.19;;;6.40;82.49
65666;BME280;52365;47.464;18.976;2023-12-14T01:10:37;98466.44;;;6.32;82.80
65666;BME280;52365;47.464;18.976;2023-12-14T01:10:53;98466.97;;;6.45;82.78
65666;BME280;52365;47.464;18.976;2023-12-14T01:11:09;98464.56;;;6.47;82.74
65666;BME280;52365;47.464;18.976;2023-12-14T01:11:25;98464.53;;;6.33;82.94
65666;BME280;52365;47.464;18.976;2023-12-14T01:11:46;98465.09;;;6.37;83.02
65666;BME280;52365;47.464;18.976;2023-12-14T01:12:03;98467.13;;;6.18;83.29
65666;BME280;52365;47.464;18.976;2023-12-14T01:12:24;98460.13;;;6.20;83.47
65666;BME280;52365;47.464;18.976;2023-12-14T01:12:40;98459.56;;;6.16;83.65
65666;BME280;52365;47.464;18.976;2023-12-14T01:13:01;98459.56;;;6.16;83.83
65666;BME280;52365;47.464;18.976;2023-12-14T01:13:22;98463.25;;;6.19;84.04
65666;BME280;52365;47.464;18.976;2023-12-14T01:13:43;98449.19;;;6.09;84.16
65666;BME280;52365;47.464;18.976;2023-12-14T01:14:04;98455.09;;;6.13;84.34
65666;BME280;52365;47.464;18.976;2023-12-14T01:14:20;98451.81;;;6.18;84.42
65666;BME280;52365;47.464;18.976;2023-12-14T01:14:36;98452.34;;;6.70;84.36
65666;BME280;52365;47.464;18.976;2023-12-14T01:14:52;98450.94;;;7.43;83.18
65666;BME280;52365;47.464;18.976;2023-12-14T01:15:09;98451.97;;;7.96;81.74
65666;BME280;52365;47.464;18.976;2023-12-14T01:15:30;98447.63;;;8.19;80.29
65666;BME280;52365;47.464;18.976;2023-12-14T01:15:46;98443.41;;;8.12;79.27
65666;BME280;52365;47.464;18.976;2023-12-14T01:16:02;98440.47;;;8.51;77.96
65666;BME280;52365;47.464;18.976;2023-12-14T01:16:19;98426.66;;;8.58;76.76
65666;BME280;52365;47.464;18.976;2023-12-14T01:16:40;98439.47;;;8.95;75.69
65666;BME280;52365;47.464;18.976;2023-12-14T01:16:56;98442.00;;;9.04;74.33
65666;BME280;52365;47.464;18.976;2023-12-14T01:17:17;98434.72;;;9.36;73.42
65666;BME280;52365;47.464;18.976;2023-12-14T01:17:39;98432.06;;;9.10;72.62
65666;BME280;52365;47.464;18.976;2023-12-14T01:18:00;98424.28;;;8.25;72.80
65666;BME280;52365;47.464;18.976;2023-12-14T01:18:16;98424.91;;;7.29;74.92
65666;BME280;52365;47.464;18.976;2023-12-14T01:18:38;98427.28;;;6.82;76.46
65666;BME280;52365;47.464;18.976;2023-12-14T01:18:59;98431.47;;;6.60;78.36
65666;BME280;52365;47.464;18.976;2023-12-14T01:19:15;98427.50;;;6.55;79.46
65666;BME280;52365;47.464;18.976;2023-12-14T01:19:31;98428.00;;;6.44;80.25
65666;BME280;52365;47.464;18.976;2023-12-14T01:19:52;98425.13;;;6.33;80.83
65666;BME280;52365;47.464;18.976;2023-12-14T01:20:13;98421.00;;;6.23;81.73
65666;BME280;52365;47.464;18.976;2023-12-14T01:20:29;98421.25;;;6.10;82.40
65666;BME280;52365;47.464;18.976;2023-12-14T01:20:45;98424.50;;;6.14;82.83
65666;BME280;52365;47.464;18.976;2023-12-14T01:21:07;98420.06;;;6.11;83.23
65666;BME280;52365;47.464;18.976;2023-12-14T01:21:23;98427.72;;;6.18;83.57
65666;BME280;52365;47.464;18.976;2023-12-14T01:21:39;98427.97;;;6.29;83.74
65666;BME280;52365;47.464;18.976;2023-12-14T01:21:55;98424.03;;;6.40;83.72
65666;BME280;52365;47.464;18.976;2023-12-14T01:22:12;98420.72;;;6.45;83.70
65666;BME280;52365;47.464;18.976;2023-12-14T01:22:33;98422.94;;;6.46;83.58
65666;BME280;52365;47.464;18.976;2023-12-14T01:22:49;98418.25;;;6.56;83.49
65666;BME280;52365;47.464;18.976;2023-12-14T01:23:10;98417.44;;;6.50;83.51
65666;BME280;52365;47.464;18.976;2023-12-14T01:23:31;98409.94;;;6.54;83.53
65666;BME280;52365;47.464;18.976;2023-12-14T01:23:52;98409.97;;;6.30;83.74
65666;BME280;52365;47.464;18.976;2023-12-14T01:24:13;98417.16;;;6.24;83.94
65666;BME280;52365;47.464;18.976;2023-12-14T01:24:35;98411.97;;;6.20;84.20
65666;BME280;52365;47.464;18.976;2023-12-14T01:24:56;98408.69;;;6.25;84.46
65666;BME280;52365;47.464;18.976;2023-12-14T01:25:17;98410.50;;;6.19;84.63
65666;BME280;52365;47.464;18.976;2023-12-14T01:25:38;98412.94;;;6.08;84.89
65666;BME280;52365;47.464;18.976;2023-12-14T01:25:54;98413.69;;;6.33;84.85
65666;BME280;52365;47.464;18.976;2023-12-14T01:26:15;98416.28;;;6.42;84.79
65666;BME280;52365;47.464;18.976;2023-12-14T01:26:31;98409.72;;;6.28;84.74
65666;BME280;52365;47.464;18.976;2023-12-14T01:26:52;98402.50;;;6.19;84.84
65666;BME280;52365;47.464;18.976;2023-12-14T01:27:13;98410.38;;;6.14;85.16
65666;BME280;52365;47.464;18.976;2023-12-14T01:27:30;98414.91;;;7.29;84.37
65666;BME280;52365;47.464;18.976;2023-12-14T01:27:46;98404.59;;;7.93;82.84
65666;BME280;52365;47.464;18.976;2023-12-14T01:28:02;98400.87;;;8.25;81.30
65666;BME280;52365;47.464;18.976;2023-12-14T01:28:23;98411.62;;;8.46;79.86
65666;BME280;52365;47.464;18.976;2023-12-14T01:28:44;98400.06;;;8.60;78.04
65666;BME280;52365;47.464;18.976;2023-12-14T01:29:05;98404.50;;;8.63;77.03
65666;BME280;52365;47.464;18.976;2023-12-14T01:29:21;98403.81;;;8.94;75.60
65666;BME280;52365;47.464;18.976;2023-12-14T01:29:42;98406.94;;;8.87;74.98
65666;BME280;52365;47.464;18.976;2023-12-14T01:30:04;98408.44;;;8.68;74.34
65666;BME280;52365;47.464;18.976;2023-12-14T01:30:20;98407.34;;;7.98;74.54
65666;BME280;52365;47.464;18.976;2023-12-14T01:30:41;98407.78;;;7.41;75.80
65666;BME280;52365;47.464;18.976;2023-12-14T01:30:57;98410.38;;;7.06;77.06
65666;BME280;52365;47.464;18.976;2023-12-14T01:31:18;98405.50;;;6.90;78.07
65666;BME280;52365;47.464;18.976;2023-12-14T01:31:39;98406.78;;;6.94;78.99
65666;BME280;52365;47.464;18.976;2023-12-14T01:32:00;98404.53;;;6.63;79.89
65666;BME280;52365;47.464;18.976;2023-12-14T01:32:16;98409.44;;;6.41;80.76
65666;BME280;52365;47.464;18.976;2023-12-14T01:32:37;98403.19;;;6.44;81.37
65666;BME280;52365;47.464;18.976;2023-12-14T01:32:54;98412.31;;;6.37;81.88
65666;BME280;52365;47.464;18.976;2023-12-14T01:33:15;98409.28;;;6.44;82.18
65666;BME280;52365;47.464;18.976;2023-12-14T01:33:31;98413.38;;;6.54;82.47
65666;BME280;52365;47.464;18.976;2023-12-14T01:33:52;98408.53;;;6.97;82.20
65666;BME280;52365;47.464;18.976;2023-12-14T01:34:13;98409.66;;;6.91;82.02
65666;BME280;52365;47.464;18.976;2023-12-14T01:34:36;98408.78;;;6.70;81.92
65666;BME280;52365;47.464;18.976;2023-12-14T01:34:57;98413.47;;;6.60;82.22
65666;BME280;52365;47.464;18.976;2023-12-14T01:35:18;98421.91;;;6.68;82.49
65666;BME280;52365;47.464;18.976;2023-12-14T01:35:34;98419.22;;;6.82;82.55
65666;BME280;52365;47.464;18.976;2023-12-14T01:35:56;98406.75;;;6.79;82.32
65666;BME280;52365;47.464;18.976;2023-12-14T01:36:24;98415.16;;;6.72;82.34
65666;BME280;52365;47.464;18.976;2023-12-14T01:36:45;98417.78;;;6.57;82.66
65666;BME280;52365;47.464;18.976;2023-12-14T01:37:01;98416.34;;;6.71;82.79
65666;BME280;52365;47.464;18.976;2023-12-14T01:37:22;98418.78;;;6.99;82.39
65666;BME280;52365;47.464;18.976;2023-12-14T01:37:38;98420.59;;;7.67;81.73
65666;BME280;52365;47.464;18.976;2023-12-14T01:37:54;98417.59;;;8.35;80.39
65666;BME280;52365;47.464;18.976;2023-12-14T01:38:16;98415.13;;;8.52;78.68
65666;BME280;52365;47.464;18.976;2023-12-14T01:38:37;98414.88;;;9.02;76.82
65666;BME280;52365;47.464;18.976;2023-12-14T01:38:58;98422.97;;;9.33;74.96
65666;BME280;52365;47.464;18.976;2023-12-14T01:39:19;98418.94;;;9.49;73.31
65666;BME280;52365;47.464;18.976;2023-12-14T01:39:40;98414.88;;;9.65;72.02
65666;BME280;52365;47.464;18.976;2023-12-14T01:40:01;98412.56;;;9.47;71.07
65666;BME280;52365;47.464;18.976;2023-12-14T01:40:22;98410.88;;;9.49;70.70